Saint Francis River (Missouri), Patterson (07037500)

StateMissouriLatestHigh (2090 cfs)
RiverSaint Francis RiverRatingObservedEstimated
Updated2020-02-25 14:00 (47 minutes ago)Flood - The river is flooding. Obstacles can be treacherous or deadly. The river should be avoided at this stage for casual trips and definitely for the inexperienced. Trips should be attempted only with protective gear and equipment.Flood(none)4402
Discharge2090 cfs (median: 950 cfs)High - The river is high and potentially dangerous, especially for the young and / or inexperienced. Normal stream obstacles are sometimes difficult to navigate. Extended distances can be attempted, but canoe travel may not be advisable.High(none)756
Height7.33 feetGood - Conditions are ideal for a canoe or kayak. Boats typically will drag on fewer than one-quarter of riffles, if at all, and portages are unnecessary or rare. Normal float lengths can be attempted without a problem.Good2000277
TrendRising (rising over 24 hours)Low - River is low but can still be floated. Some riffles are okay but most come with significant dragging and might need a portage. Float lengths should be reduced to accommodate low flow, dragging, and portages.Low(none)121
USGSExternal icon USGS Site (External icon Google Maps)Poor - River is too low to float comfortably. Most or all riffles will drag or must be portaged and some obstacles (such as slick shelf rock) cause undue problems. Avoid the river at this stage for casual paddling trips.Poor(none)27

Trending Data

Plot Image

Trips for Saint Francis River (Missouri), Patterson (07037500)

DateStartEndDistanceConditionDischargeHeightFishingDetails
Click for details2009-05-08 Big Creek Sam Baker State Park Total trip distance: 11.6 miles0.3 Good 2660 8.77 None NoneNone Bowe, Michelle
Edmond, Brian
Bowe, Michelle; Edmond, Brian
No notes for this trip<i>No notes for this trip</i> USGS Gauge Data:
Patterson (07037500)
Discharge: 2660
Height: 8.77
<b>USGS Gauge Data:</b></br />Patterson (07037500)<br />Discharge: 2660<br />Height: 8.77
Source: EdmondSource: Edmond

A total of 1 rows are displayed.

Trip Summary for Saint Francis River (Missouri), Patterson (07037500)

Miles0.3
Trips1
People2
Dates1
Years1
Months1
Rows1
Sources1

Condition Descriptions

Fishing Conditions

Fish Species

Notes

Classic Trip List

The classic River Trips application is still available for use. It is updated with the new system using a data retrofit. It is no longer maintained. The original River Trips application is no longer updated (as of 1 Dec 2016) but can be checked for errors or for the condition of the data before it was converted to the new system.

Gauge Data Table

ObservationHeightDischargeMaximum
Discharge
Minimum
Discharge
Mean
Discharge
P05P10P20P25P50
(Median)
P75P80P90P95
2020-02-25 14:00 7.33 2090 28300 (2018) 112 (1963) 2070 242 277 434 497 950 1690 2190 4710 7490
2020-02-25 13:30 7.28 2040 28300 (2018) 112 (1963) 2070 242 277 434 497 950 1690 2190 4710 7490
2020-02-25 13:00 7.23 2000 28300 (2018) 112 (1963) 2070 242 277 434 497 950 1690 2190 4710 7490
2020-02-25 12:30 7.15 1940 28300 (2018) 112 (1963) 2070 242 277 434 497 950 1690 2190 4710 7490
2020-02-25 12:00 7.10 1890 28300 (2018) 112 (1963) 2070 242 277 434 497 950 1690 2190 4710 7490
2020-02-25 11:30 7.05 1850 28300 (2018) 112 (1963) 2070 242 277 434 497 950 1690 2190 4710 7490
2020-02-25 11:00 6.99 1810 28300 (2018) 112 (1963) 2070 242 277 434 497 950 1690 2190 4710 7490
2020-02-25 10:30 6.93 1760 28300 (2018) 112 (1963) 2070 242 277 434 497 950 1690 2190 4710 7490
2020-02-25 10:00 6.88 1720 28300 (2018) 112 (1963) 2070 242 277 434 497 950 1690 2190 4710 7490
2020-02-25 09:30 6.83 1680 28300 (2018) 112 (1963) 2070 242 277 434 497 950 1690 2190 4710 7490
2020-02-25 09:00 6.81 1670 28300 (2018) 112 (1963) 2070 242 277 434 497 950 1690 2190 4710 7490
2020-02-25 08:30 6.77 1640 28300 (2018) 112 (1963) 2070 242 277 434 497 950 1690 2190 4710 7490
2020-02-25 08:00 6.73 1610 28300 (2018) 112 (1963) 2070 242 277 434 497 950 1690 2190 4710 7490
2020-02-25 07:30 6.70 1580 28300 (2018) 112 (1963) 2070 242 277 434 497 950 1690 2190 4710 7490
2020-02-25 07:00 6.65 1550 28300 (2018) 112 (1963) 2070 242 277 434 497 950 1690 2190 4710 7490
2020-02-25 06:30 6.65 1550 28300 (2018) 112 (1963) 2070 242 277 434 497 950 1690 2190 4710 7490
2020-02-25 06:00 6.61 1520 28300 (2018) 112 (1963) 2070 242 277 434 497 950 1690 2190 4710 7490
2020-02-25 05:30 6.58 1500 28300 (2018) 112 (1963) 2070 242 277 434 497 950 1690 2190 4710 7490
2020-02-25 05:00 6.56 1480 28300 (2018) 112 (1963) 2070 242 277 434 497 950 1690 2190 4710 7490
2020-02-25 04:30 6.54 1470 28300 (2018) 112 (1963) 2070 242 277 434 497 950 1690 2190 4710 7490
2020-02-25 04:00 6.53 1460 28300 (2018) 112 (1963) 2070 242 277 434 497 950 1690 2190 4710 7490
2020-02-25 03:30 6.50 1440 28300 (2018) 112 (1963) 2070 242 277 434 497 950 1690 2190 4710 7490
2020-02-25 03:00 6.48 1430 28300 (2018) 112 (1963) 2070 242 277 434 497 950 1690 2190 4710 7490
2020-02-25 02:30 6.47 1420 28300 (2018) 112 (1963) 2070 242 277 434 497 950 1690 2190 4710 7490
2020-02-25 02:00 6.44 1400 28300 (2018) 112 (1963) 2070 242 277 434 497 950 1690 2190 4710 7490
2020-02-25 01:30 6.44 1400 28300 (2018) 112 (1963) 2070 242 277 434 497 950 1690 2190 4710 7490
2020-02-25 01:00 6.43 1390 28300 (2018) 112 (1963) 2070 242 277 434 497 950 1690 2190 4710 7490
2020-02-25 00:30 6.41 1380 28300 (2018) 112 (1963) 2070 242 277 434 497 950 1690 2190 4710 7490
2020-02-25 00:00 6.40 1370 28300 (2018) 112 (1963) 2070 242 277 434 497 950 1690 2190 4710 7490
2020-02-24 23:30 6.40 1370 34900 (1985) 114 (1963) 2060 247 299 439 496 960 1760 2040 3900 10800
2020-02-24 23:00 6.38 1360 34900 (1985) 114 (1963) 2060 247 299 439 496 960 1760 2040 3900 10800
2020-02-24 22:30 6.38 1360 34900 (1985) 114 (1963) 2060 247 299 439 496 960 1760 2040 3900 10800
2020-02-24 22:00 6.37 1350 34900 (1985) 114 (1963) 2060 247 299 439 496 960 1760 2040 3900 10800
2020-02-24 21:30 6.35 1340 34900 (1985) 114 (1963) 2060 247 299 439 496 960 1760 2040 3900 10800
2020-02-24 21:00 6.35 1340 34900 (1985) 114 (1963) 2060 247 299 439 496 960 1760 2040 3900 10800
2020-02-24 20:30 6.35 1340 34900 (1985) 114 (1963) 2060 247 299 439 496 960 1760 2040 3900 10800
2020-02-24 20:00 6.34 1330 34900 (1985) 114 (1963) 2060 247 299 439 496 960 1760 2040 3900 10800
2020-02-24 19:30 6.32 1320 34900 (1985) 114 (1963) 2060 247 299 439 496 960 1760 2040 3900 10800
2020-02-24 19:00 6.27 1280 34900 (1985) 114 (1963) 2060 247 299 439 496 960 1760 2040 3900 10800
2020-02-24 18:30 6.24 1260 34900 (1985) 114 (1963) 2060 247 299 439 496 960 1760 2040 3900 10800
2020-02-24 18:00 6.23 1260 34900 (1985) 114 (1963) 2060 247 299 439 496 960 1760 2040 3900 10800
2020-02-24 17:30 6.19 1230 34900 (1985) 114 (1963) 2060 247 299 439 496 960 1760 2040 3900 10800
2020-02-24 17:00 6.18 1220 34900 (1985) 114 (1963) 2060 247 299 439 496 960 1760 2040 3900 10800
2020-02-24 16:30 6.17 1220 34900 (1985) 114 (1963) 2060 247 299 439 496 960 1760 2040 3900 10800
2020-02-24 16:00 6.15 1200 34900 (1985) 114 (1963) 2060 247 299 439 496 960 1760 2040 3900 10800
2020-02-24 15:30 6.15 1200 34900 (1985) 114 (1963) 2060 247 299 439 496 960 1760 2040 3900 10800
2020-02-24 15:00 6.16 1210 34900 (1985) 114 (1963) 2060 247 299 439 496 960 1760 2040 3900 10800
2020-02-24 14:30 6.16 1210 34900 (1985) 114 (1963) 2060 247 299 439 496 960 1760 2040 3900 10800
2020-02-24 14:00 6.16 1210 34900 (1985) 114 (1963) 2060 247 299 439 496 960 1760 2040 3900 10800
2020-02-24 13:30 6.16 1210 34900 (1985) 114 (1963) 2060 247 299 439 496 960 1760 2040 3900 10800
2020-02-24 13:00 6.13 1190 34900 (1985) 114 (1963) 2060 247 299 439 496 960 1760 2040 3900 10800
2020-02-24 12:30 6.13 1190 34900 (1985) 114 (1963) 2060 247 299 439 496 960 1760 2040 3900 10800
2020-02-24 12:00 6.15 1200 34900 (1985) 114 (1963) 2060 247 299 439 496 960 1760 2040 3900 10800
2020-02-24 11:30 6.13 1190 34900 (1985) 114 (1963) 2060 247 299 439 496 960 1760 2040 3900 10800
2020-02-24 11:00 6.14 1200 34900 (1985) 114 (1963) 2060 247 299 439 496 960 1760 2040 3900 10800
2020-02-24 10:30 6.13 1190 34900 (1985) 114 (1963) 2060 247 299 439 496 960 1760 2040 3900 10800
2020-02-24 10:00 6.10 1170 34900 (1985) 114 (1963) 2060 247 299 439 496 960 1760 2040 3900 10800
2020-02-24 09:30 6.12 1180 34900 (1985) 114 (1963) 2060 247 299 439 496 960 1760 2040 3900 10800
2020-02-24 09:00 6.05 1140 34900 (1985) 114 (1963) 2060 247 299 439 496 960 1760 2040 3900 10800
2020-02-24 08:30 6.05 1140 34900 (1985) 114 (1963) 2060 247 299 439 496 960 1760 2040 3900 10800
2020-02-24 08:00 6.06 1150 34900 (1985) 114 (1963) 2060 247 299 439 496 960 1760 2040 3900 10800
2020-02-24 07:30 6.03 1130 34900 (1985) 114 (1963) 2060 247 299 439 496 960 1760 2040 3900 10800
2020-02-24 07:00 6.02 1120 34900 (1985) 114 (1963) 2060 247 299 439 496 960 1760 2040 3900 10800
2020-02-24 06:30 6.00 1110 34900 (1985) 114 (1963) 2060 247 299 439 496 960 1760 2040 3900 10800
2020-02-24 06:00 5.94 1070 34900 (1985) 114 (1963) 2060 247 299 439 496 960 1760 2040 3900 10800
2020-02-24 05:30 5.83 1010 34900 (1985) 114 (1963) 2060 247 299 439 496 960 1760 2040 3900 10800
2020-02-24 05:00 5.82 1000 34900 (1985) 114 (1963) 2060 247 299 439 496 960 1760 2040 3900 10800
2020-02-24 04:30 5.81 997 34900 (1985) 114 (1963) 2060 247 299 439 496 960 1760 2040 3900 10800
2020-02-24 04:00 5.75 963 34900 (1985) 114 (1963) 2060 247 299 439 496 960 1760 2040 3900 10800
2020-02-24 03:30 5.77 974 34900 (1985) 114 (1963) 2060 247 299 439 496 960 1760 2040 3900 10800
2020-02-24 03:00 5.76 968 34900 (1985) 114 (1963) 2060 247 299 439 496 960 1760 2040 3900 10800
2020-02-24 02:30 5.72 946 34900 (1985) 114 (1963) 2060 247 299 439 496 960 1760 2040 3900 10800
2020-02-24 02:00 5.74 957 34900 (1985) 114 (1963) 2060 247 299 439 496 960 1760 2040 3900 10800
2020-02-24 01:30 5.72 946 34900 (1985) 114 (1963) 2060 247 299 439 496 960 1760 2040 3900 10800
2020-02-24 01:00 5.73 951 34900 (1985) 114 (1963) 2060 247 299 439 496 960 1760 2040 3900 10800
2020-02-24 00:30 5.72 946 34900 (1985) 114 (1963) 2060 247 299 439 496 960 1760 2040 3900 10800
2020-02-24 00:00 5.72 946 34900 (1985) 114 (1963) 2060 247 299 439 496 960 1760 2040 3900 10800
2020-02-23 23:30 5.72 946 25000 (1975) 114 (1963) 2070 249 308 436 480 888 1990 2240 4190 10500
2020-02-23 23:00 5.73 951 25000 (1975) 114 (1963) 2070 249 308 436 480 888 1990 2240 4190 10500
2020-02-23 22:30 5.75 963 25000 (1975) 114 (1963) 2070 249 308 436 480 888 1990 2240 4190 10500
2020-02-23 22:00 5.72 946 25000 (1975) 114 (1963) 2070 249 308 436 480 888 1990 2240 4190 10500
2020-02-23 21:30 5.72 946 25000 (1975) 114 (1963) 2070 249 308 436 480 888 1990 2240 4190 10500
2020-02-23 21:00 5.72 946 25000 (1975) 114 (1963) 2070 249 308 436 480 888 1990 2240 4190 10500
2020-02-23 20:30 5.73 951 25000 (1975) 114 (1963) 2070 249 308 436 480 888 1990 2240 4190 10500
2020-02-23 20:00 5.75 963 25000 (1975) 114 (1963) 2070 249 308 436 480 888 1990 2240 4190 10500
2020-02-23 19:30 5.74 957 25000 (1975) 114 (1963) 2070 249 308 436 480 888 1990 2240 4190 10500
2020-02-23 19:00 5.75 963 25000 (1975) 114 (1963) 2070 249 308 436 480 888 1990 2240 4190 10500
2020-02-23 18:30 5.77 974 25000 (1975) 114 (1963) 2070 249 308 436 480 888 1990 2240 4190 10500
2020-02-23 18:00 5.74 957 25000 (1975) 114 (1963) 2070 249 308 436 480 888 1990 2240 4190 10500
2020-02-23 17:30 5.73 951 25000 (1975) 114 (1963) 2070 249 308 436 480 888 1990 2240 4190 10500
2020-02-23 17:00 5.73 951 25000 (1975) 114 (1963) 2070 249 308 436 480 888 1990 2240 4190 10500
2020-02-23 16:30 5.74 957 25000 (1975) 114 (1963) 2070 249 308 436 480 888 1990 2240 4190 10500
2020-02-23 16:00 5.76 968 25000 (1975) 114 (1963) 2070 249 308 436 480 888 1990 2240 4190 10500
2020-02-23 15:30 5.73 951 25000 (1975) 114 (1963) 2070 249 308 436 480 888 1990 2240 4190 10500
2020-02-23 15:00 5.75 963 25000 (1975) 114 (1963) 2070 249 308 436 480 888 1990 2240 4190 10500
2020-02-23 14:30 5.74 957 25000 (1975) 114 (1963) 2070 249 308 436 480 888 1990 2240 4190 10500
2020-02-23 14:00 5.74 957 25000 (1975) 114 (1963) 2070 249 308 436 480 888 1990 2240 4190 10500
2020-02-23 13:30 5.74 957 25000 (1975) 114 (1963) 2070 249 308 436 480 888 1990 2240 4190 10500
2020-02-23 13:00 5.76 968 25000 (1975) 114 (1963) 2070 249 308 436 480 888 1990 2240 4190 10500
2020-02-23 12:30 5.75 963 25000 (1975) 114 (1963) 2070 249 308 436 480 888 1990 2240 4190 10500
2020-02-23 12:00 5.76 968 25000 (1975) 114 (1963) 2070 249 308 436 480 888 1990 2240 4190 10500
2020-02-23 11:30 5.76 968 25000 (1975) 114 (1963) 2070 249 308 436 480 888 1990 2240 4190 10500
2020-02-23 11:00 5.78 980 25000 (1975) 114 (1963) 2070 249 308 436 480 888 1990 2240 4190 10500
2020-02-23 10:30 5.78 980 25000 (1975) 114 (1963) 2070 249 308 436 480 888 1990 2240 4190 10500
2020-02-23 10:00 5.76 968 25000 (1975) 114 (1963) 2070 249 308 436 480 888 1990 2240 4190 10500
2020-02-23 09:30 5.75 963 25000 (1975) 114 (1963) 2070 249 308 436 480 888 1990 2240 4190 10500
2020-02-23 09:00 5.77 974 25000 (1975) 114 (1963) 2070 249 308 436 480 888 1990 2240 4190 10500
2020-02-23 08:30 5.78 980 25000 (1975) 114 (1963) 2070 249 308 436 480 888 1990 2240 4190 10500
2020-02-23 08:00 5.80 991 25000 (1975) 114 (1963) 2070 249 308 436 480 888 1990 2240 4190 10500
2020-02-23 07:30 5.82 1000 25000 (1975) 114 (1963) 2070 249 308 436 480 888 1990 2240 4190 10500
2020-02-23 07:00 5.77 974 25000 (1975) 114 (1963) 2070 249 308 436 480 888 1990 2240 4190 10500
2020-02-23 06:30 5.79 985 25000 (1975) 114 (1963) 2070 249 308 436 480 888 1990 2240 4190 10500
2020-02-23 06:00 5.77 974 25000 (1975) 114 (1963) 2070 249 308 436 480 888 1990 2240 4190 10500
2020-02-23 05:30 5.79 985 25000 (1975) 114 (1963) 2070 249 308 436 480 888 1990 2240 4190 10500
2020-02-23 05:00 5.79 985 25000 (1975) 114 (1963) 2070 249 308 436 480 888 1990 2240 4190 10500
2020-02-23 04:30 5.78 980 25000 (1975) 114 (1963) 2070 249 308 436 480 888 1990 2240 4190 10500
2020-02-23 04:00 5.81 997 25000 (1975) 114 (1963) 2070 249 308 436 480 888 1990 2240 4190 10500
2020-02-23 03:30 5.80 991 25000 (1975) 114 (1963) 2070 249 308 436 480 888 1990 2240 4190 10500
2020-02-23 03:00 5.81 997 25000 (1975) 114 (1963) 2070 249 308 436 480 888 1990 2240 4190 10500
2020-02-23 02:30 5.81 997 25000 (1975) 114 (1963) 2070 249 308 436 480 888 1990 2240 4190 10500
2020-02-23 02:00 5.83 1010 25000 (1975) 114 (1963) 2070 249 308 436 480 888 1990 2240 4190 10500
2020-02-23 01:30 5.81 997 25000 (1975) 114 (1963) 2070 249 308 436 480 888 1990 2240 4190 10500
2020-02-23 01:00 5.85 1020 25000 (1975) 114 (1963) 2070 249 308 436 480 888 1990 2240 4190 10500
2020-02-23 00:30 5.86 1030 25000 (1975) 114 (1963) 2070 249 308 436 480 888 1990 2240 4190 10500
2020-02-23 00:00 5.83 1010 25000 (1975) 114 (1963) 2070 249 308 436 480 888 1990 2240 4190 10500
2020-02-22 23:30 5.84 1010 17400 (2018) 116 (1963) 1770 227 313 415 520 888 1730 2150 3270 6620
2020-02-22 23:00 5.84 1010 17400 (2018) 116 (1963) 1770 227 313 415 520 888 1730 2150 3270 6620
2020-02-22 22:30 5.82 1000 17400 (2018) 116 (1963) 1770 227 313 415 520 888 1730 2150 3270 6620
2020-02-22 22:00 5.84 1010 17400 (2018) 116 (1963) 1770 227 313 415 520 888 1730 2150 3270 6620
2020-02-22 21:30 5.83 1010 17400 (2018) 116 (1963) 1770 227 313 415 520 888 1730 2150 3270 6620
2020-02-22 21:00 5.83 1010 17400 (2018) 116 (1963) 1770 227 313 415 520 888 1730 2150 3270 6620
2020-02-22 20:30 5.86 1030 17400 (2018) 116 (1963) 1770 227 313 415 520 888 1730 2150 3270 6620
2020-02-22 20:00 5.84 1010 17400 (2018) 116 (1963) 1770 227 313 415 520 888 1730 2150 3270 6620
2020-02-22 19:30 5.82 1000 17400 (2018) 116 (1963) 1770 227 313 415 520 888 1730 2150 3270 6620
2020-02-22 19:00 5.86 1030 17400 (2018) 116 (1963) 1770 227 313 415 520 888 1730 2150 3270 6620
2020-02-22 18:30 5.83 1010 17400 (2018) 116 (1963) 1770 227 313 415 520 888 1730 2150 3270 6620
2020-02-22 18:00 5.84 1010 17400 (2018) 116 (1963) 1770 227 313 415 520 888 1730 2150 3270 6620
2020-02-22 17:30 5.85 1020 17400 (2018) 116 (1963) 1770 227 313 415 520 888 1730 2150 3270 6620
2020-02-22 17:00 5.86 1030 17400 (2018) 116 (1963) 1770 227 313 415 520 888 1730 2150 3270 6620
2020-02-22 16:30 5.87 1030 17400 (2018) 116 (1963) 1770 227 313 415 520 888 1730 2150 3270 6620
2020-02-22 16:00 5.86 1030 17400 (2018) 116 (1963) 1770 227 313 415 520 888 1730 2150 3270 6620
2020-02-22 15:30 5.86 1030 17400 (2018) 116 (1963) 1770 227 313 415 520 888 1730 2150 3270 6620
2020-02-22 15:00 5.88 1040 17400 (2018) 116 (1963) 1770 227 313 415 520 888 1730 2150 3270 6620
2020-02-22 14:30 5.94 1070 17400 (2018) 116 (1963) 1770 227 313 415 520 888 1730 2150 3270 6620
2020-02-22 14:00 5.92 1060 17400 (2018) 116 (1963) 1770 227 313 415 520 888 1730 2150 3270 6620
2020-02-22 13:30 5.95 1080 17400 (2018) 116 (1963) 1770 227 313 415 520 888 1730 2150 3270 6620
2020-02-22 13:00 5.95 1080 17400 (2018) 116 (1963) 1770 227 313 415 520 888 1730 2150 3270 6620
2020-02-22 12:30 5.93 1070 17400 (2018) 116 (1963) 1770 227 313 415 520 888 1730 2150 3270 6620
2020-02-22 12:00 5.94 1070 17400 (2018) 116 (1963) 1770 227 313 415 520 888 1730 2150 3270 6620
2020-02-22 11:30 5.94 1070 17400 (2018) 116 (1963) 1770 227 313 415 520 888 1730 2150 3270 6620
2020-02-22 11:00 5.96 1090 17400 (2018) 116 (1963) 1770 227 313 415 520 888 1730 2150 3270 6620
2020-02-22 10:30 5.96 1090 17400 (2018) 116 (1963) 1770 227 313 415 520 888 1730 2150 3270 6620
2020-02-22 10:00 5.94 1070 17400 (2018) 116 (1963) 1770 227 313 415 520 888 1730 2150 3270 6620
2020-02-22 09:30 5.94 1070 17400 (2018) 116 (1963) 1770 227 313 415 520 888 1730 2150 3270 6620
2020-02-22 09:00 5.95 1080 17400 (2018) 116 (1963) 1770 227 313 415 520 888 1730 2150 3270 6620
2020-02-22 08:30 5.93 1070 17400 (2018) 116 (1963) 1770 227 313 415 520 888 1730 2150 3270 6620
2020-02-22 08:00 5.91 1060 17400 (2018) 116 (1963) 1770 227 313 415 520 888 1730 2150 3270 6620
2020-02-22 07:30 5.90 1050 17400 (2018) 116 (1963) 1770 227 313 415 520 888 1730 2150 3270 6620
2020-02-22 07:00 5.93 1070 17400 (2018) 116 (1963) 1770 227 313 415 520 888 1730 2150 3270 6620
2020-02-22 06:30 5.93 1070 17400 (2018) 116 (1963) 1770 227 313 415 520 888 1730 2150 3270 6620
2020-02-22 06:00 5.93 1070 17400 (2018) 116 (1963) 1770 227 313 415 520 888 1730 2150 3270 6620
2020-02-22 05:30 5.96 1090 17400 (2018) 116 (1963) 1770 227 313 415 520 888 1730 2150 3270 6620
2020-02-22 05:00 5.94 1070 17400 (2018) 116 (1963) 1770 227 313 415 520 888 1730 2150 3270 6620
2020-02-22 04:30 5.95 1080 17400 (2018) 116 (1963) 1770 227 313 415 520 888 1730 2150 3270 6620
2020-02-22 04:00 5.94 1070 17400 (2018) 116 (1963) 1770 227 313 415 520 888 1730 2150 3270 6620
2020-02-22 03:30 5.94 1070 17400 (2018) 116 (1963) 1770 227 313 415 520 888 1730 2150 3270 6620
2020-02-22 03:00 5.94 1070 17400 (2018) 116 (1963) 1770 227 313 415 520 888 1730 2150 3270 6620
2020-02-22 02:30 5.96 1090 17400 (2018) 116 (1963) 1770 227 313 415 520 888 1730 2150 3270 6620
2020-02-22 02:00 5.97 1090 17400 (2018) 116 (1963) 1770 227 313 415 520 888 1730 2150 3270 6620
2020-02-22 01:30 5.97 1090 17400 (2018) 116 (1963) 1770 227 313 415 520 888 1730 2150 3270 6620
2020-02-22 01:00 5.97 1090 17400 (2018) 116 (1963) 1770 227 313 415 520 888 1730 2150 3270 6620
2020-02-22 00:30 5.99 1100 17400 (2018) 116 (1963) 1770 227 313 415 520 888 1730 2150 3270 6620
2020-02-22 00:00 5.99 1100 17400 (2018) 116 (1963) 1770 227 313 415 520 888 1730 2150 3270 6620
2020-02-21 23:30 5.97 1090 19300 (1951) 118 (1934) 1820 233 330 407 518 920 1430 1870 3870 9120
2020-02-21 23:00 6.00 1110 19300 (1951) 118 (1934) 1820 233 330 407 518 920 1430 1870 3870 9120
2020-02-21 22:30 5.98 1100 19300 (1951) 118 (1934) 1820 233 330 407 518 920 1430 1870 3870 9120
2020-02-21 22:00 5.98 1100 19300 (1951) 118 (1934) 1820 233 330 407 518 920 1430 1870 3870 9120
2020-02-21 21:30 6.00 1110 19300 (1951) 118 (1934) 1820 233 330 407 518 920 1430 1870 3870 9120
2020-02-21 21:00 5.99 1100 19300 (1951) 118 (1934) 1820 233 330 407 518 920 1430 1870 3870 9120
2020-02-21 20:30 6.02 1120 19300 (1951) 118 (1934) 1820 233 330 407 518 920 1430 1870 3870 9120
2020-02-21 20:00 6.01 1120 19300 (1951) 118 (1934) 1820 233 330 407 518 920 1430 1870 3870 9120
2020-02-21 19:30 6.00 1110 19300 (1951) 118 (1934) 1820 233 330 407 518 920 1430 1870 3870 9120
2020-02-21 19:00 6.00 1110 19300 (1951) 118 (1934) 1820 233 330 407 518 920 1430 1870 3870 9120
2020-02-21 18:30 6.04 1130 19300 (1951) 118 (1934) 1820 233 330 407 518 920 1430 1870 3870 9120
2020-02-21 18:00 6.00 1110 19300 (1951) 118 (1934) 1820 233 330 407 518 920 1430 1870 3870 9120
2020-02-21 17:30 6.06 1150 19300 (1951) 118 (1934) 1820 233 330 407 518 920 1430 1870 3870 9120
2020-02-21 17:00 6.06 1150 19300 (1951) 118 (1934) 1820 233 330 407 518 920 1430 1870 3870 9120
2020-02-21 16:30 6.03 1130 19300 (1951) 118 (1934) 1820 233 330 407 518 920 1430 1870 3870 9120
2020-02-21 16:00 6.08 1160 19300 (1951) 118 (1934) 1820 233 330 407 518 920 1430 1870 3870 9120
2020-02-21 15:30 6.07 1150 19300 (1951) 118 (1934) 1820 233 330 407 518 920 1430 1870 3870 9120
2020-02-21 15:00 6.05 1140 19300 (1951) 118 (1934) 1820 233 330 407 518 920 1430 1870 3870 9120
2020-02-21 14:30 6.08 1160 19300 (1951) 118 (1934) 1820 233 330 407 518 920 1430 1870 3870 9120
2020-02-21 14:00 6.07 1150 19300 (1951) 118 (1934) 1820 233 330 407 518 920 1430 1870 3870 9120
2020-02-21 13:30 6.08 1160 19300 (1951) 118 (1934) 1820 233 330 407 518 920 1430 1870 3870 9120
2020-02-21 13:00 6.10 1170 19300 (1951) 118 (1934) 1820 233 330 407 518 920 1430 1870 3870 9120
2020-02-21 12:30 6.09 1170 19300 (1951) 118 (1934) 1820 233 330 407 518 920 1430 1870 3870 9120
2020-02-21 12:00 6.10 1170 19300 (1951) 118 (1934) 1820 233 330 407 518 920 1430 1870 3870 9120
2020-02-21 11:30 6.11 1180 19300 (1951) 118 (1934) 1820 233 330 407 518 920 1430 1870 3870 9120
2020-02-21 11:00 6.10 1170 19300 (1951) 118 (1934) 1820 233 330 407 518 920 1430 1870 3870 9120
2020-02-21 10:30 6.10 1170 19300 (1951) 118 (1934) 1820 233 330 407 518 920 1430 1870 3870 9120
2020-02-21 10:00 6.10 1170 19300 (1951) 118 (1934) 1820 233 330 407 518 920 1430 1870 3870 9120
2020-02-21 09:30 6.14 1200 19300 (1951) 118 (1934) 1820 233 330 407 518 920 1430 1870 3870 9120
2020-02-21 09:00 6.13 1190 19300 (1951) 118 (1934) 1820 233 330 407 518 920 1430 1870 3870 9120
2020-02-21 08:30 6.12 1180 19300 (1951) 118 (1934) 1820 233 330 407 518 920 1430 1870 3870 9120
2020-02-21 08:00 6.12 1180 19300 (1951) 118 (1934) 1820 233 330 407 518 920 1430 1870 3870 9120
2020-02-21 07:30 6.12 1180 19300 (1951) 118 (1934) 1820 233 330 407 518 920 1430 1870 3870 9120
2020-02-21 07:00 6.12 1180 19300 (1951) 118 (1934) 1820 233 330 407 518 920 1430 1870 3870 9120
2020-02-21 06:30 6.12 1180 19300 (1951) 118 (1934) 1820 233 330 407 518 920 1430 1870 3870 9120
2020-02-21 06:00 6.11 1180 19300 (1951) 118 (1934) 1820 233 330 407 518 920 1430 1870 3870 9120
2020-02-21 05:30 6.13 1190 19300 (1951) 118 (1934) 1820 233 330 407 518 920 1430 1870 3870 9120
2020-02-21 05:00 6.14 1200 19300 (1951) 118 (1934) 1820 233 330 407 518 920 1430 1870 3870 9120
2020-02-21 04:30 6.12 1180 19300 (1951) 118 (1934) 1820 233 330 407 518 920 1430 1870 3870 9120
2020-02-21 03:30 6.15 1200 19300 (1951) 118 (1934) 1820 233 330 407 518 920 1430 1870 3870 9120
2020-02-21 03:00 6.15 1200 19300 (1951) 118 (1934) 1820 233 330 407 518 920 1430 1870 3870 9120
2020-02-21 02:30 6.16 1210 19300 (1951) 118 (1934) 1820 233 330 407 518 920 1430 1870 3870 9120
2020-02-21 02:00 6.18 1220 19300 (1951) 118 (1934) 1820 233 330 407 518 920 1430 1870 3870 9120
2020-02-21 01:30 6.15 1200 19300 (1951) 118 (1934) 1820 233 330 407 518 920 1430 1870 3870 9120
2020-02-21 01:00 6.17 1220 19300 (1951) 118 (1934) 1820 233 330 407 518 920 1430 1870 3870 9120
2020-02-21 00:30 6.18 1220 19300 (1951) 118 (1934) 1820 233 330 407 518 920 1430 1870 3870 9120
2020-02-21 00:00 6.19 1230 19300 (1951) 118 (1934) 1820 233 330 407 518 920 1430 1870 3870 9120
2020-02-20 23:30 6.20 1240 11500 (1951) 116 (1934) 1560 242 309 379 453 890 1600 1660 3290 8160
2020-02-20 23:00 6.18 1220 11500 (1951) 116 (1934) 1560 242 309 379 453 890 1600 1660 3290 8160
2020-02-20 22:30 6.18 1220 11500 (1951) 116 (1934) 1560 242 309 379 453 890 1600 1660 3290 8160
2020-02-20 22:00 6.21 1240 11500 (1951) 116 (1934) 1560 242 309 379 453 890 1600 1660 3290 8160
2020-02-20 21:30 6.22 1250 11500 (1951) 116 (1934) 1560 242 309 379 453 890 1600 1660 3290 8160
2020-02-20 21:00 6.21 1240 11500 (1951) 116 (1934) 1560 242 309 379 453 890 1600 1660 3290 8160
2020-02-20 20:30 6.21 1240 11500 (1951) 116 (1934) 1560 242 309 379 453 890 1600 1660 3290 8160
2020-02-20 20:00 6.22 1250 11500 (1951) 116 (1934) 1560 242 309 379 453 890 1600 1660 3290 8160
2020-02-20 19:30 6.22 1250 11500 (1951) 116 (1934) 1560 242 309 379 453 890 1600 1660 3290 8160
2020-02-20 19:00 6.24 1260 11500 (1951) 116 (1934) 1560 242 309 379 453 890 1600 1660 3290 8160
2020-02-20 18:30 6.22 1250 11500 (1951) 116 (1934) 1560 242 309 379 453 890 1600 1660 3290 8160
2020-02-20 18:00 6.26 1280 11500 (1951) 116 (1934) 1560 242 309 379 453 890 1600 1660 3290 8160
2020-02-20 17:30 6.23 1260 11500 (1951) 116 (1934) 1560 242 309 379 453 890 1600 1660 3290 8160
2020-02-20 17:00 6.24 1260 11500 (1951) 116 (1934) 1560 242 309 379 453 890 1600 1660 3290 8160
2020-02-20 16:30 6.28 1290 11500 (1951) 116 (1934) 1560 242 309 379 453 890 1600 1660 3290 8160
2020-02-20 16:00 6.26 1280 11500 (1951) 116 (1934) 1560 242 309 379 453 890 1600 1660 3290 8160
2020-02-20 15:30 6.27 1280 11500 (1951) 116 (1934) 1560 242 309 379 453 890 1600 1660 3290 8160
2020-02-20 15:00 6.30 1300 11500 (1951) 116 (1934) 1560 242 309 379 453 890 1600 1660 3290 8160
2020-02-20 14:30 6.28 1290 11500 (1951) 116 (1934) 1560 242 309 379 453 890 1600 1660 3290 8160
2020-02-20 14:00 6.29 1300 11500 (1951) 116 (1934) 1560 242 309 379 453 890 1600 1660 3290 8160
2020-02-20 13:30 6.31 1310 11500 (1951) 116 (1934) 1560 242 309 379 453 890 1600 1660 3290 8160
2020-02-20 13:00 6.30 1300 11500 (1951) 116 (1934) 1560 242 309 379 453 890 1600 1660 3290 8160
2020-02-20 12:30 6.32 1320 11500 (1951) 116 (1934) 1560 242 309 379 453 890 1600 1660 3290 8160
2020-02-20 12:00 6.34 1330 11500 (1951) 116 (1934) 1560 242 309 379 453 890 1600 1660 3290 8160
2020-02-20 11:30 6.32 1320 11500 (1951) 116 (1934) 1560 242 309 379 453 890 1600 1660 3290 8160
2020-02-20 11:00 6.33 1320 11500 (1951) 116 (1934) 1560 242 309 379 453 890 1600 1660 3290 8160
2020-02-20 10:30 6.33 1320 11500 (1951) 116 (1934) 1560 242 309 379 453 890 1600 1660 3290 8160
2020-02-20 10:00 6.36 1340 11500 (1951) 116 (1934) 1560 242 309 379 453 890 1600 1660 3290 8160
2020-02-20 09:30 6.34 1330 11500 (1951) 116 (1934) 1560 242 309 379 453 890 1600 1660 3290 8160
2020-02-20 09:00 6.34 1330 11500 (1951) 116 (1934) 1560 242 309 379 453 890 1600 1660 3290 8160
2020-02-20 08:30 6.34 1330 11500 (1951) 116 (1934) 1560 242 309 379 453 890 1600 1660 3290 8160
2020-02-20 08:00 6.35 1340 11500 (1951) 116 (1934) 1560 242 309 379 453 890 1600 1660 3290 8160
2020-02-20 07:30 6.35 1340 11500 (1951) 116 (1934) 1560 242 309 379 453 890 1600 1660 3290 8160
2020-02-20 07:00 6.37 1350 11500 (1951) 116 (1934) 1560 242 309 379 453 890 1600 1660 3290 8160
2020-02-20 06:30 6.41 1380 11500 (1951) 116 (1934) 1560 242 309 379 453 890 1600 1660 3290 8160
2020-02-20 06:00 6.40 1370 11500 (1951) 116 (1934) 1560 242 309 379 453 890 1600 1660 3290 8160
2020-02-20 05:30 6.38 1360 11500 (1951) 116 (1934) 1560 242 309 379 453 890 1600 1660 3290 8160
2020-02-20 05:00 6.41 1380 11500 (1951) 116 (1934) 1560 242 309 379 453 890 1600 1660 3290 8160
2020-02-20 04:30 6.40 1370 11500 (1951) 116 (1934) 1560 242 309 379 453 890 1600 1660 3290 8160
2020-02-20 04:00 6.40 1370 11500 (1951) 116 (1934) 1560 242 309 379 453 890 1600 1660 3290 8160
2020-02-20 03:30 6.40 1370 11500 (1951) 116 (1934) 1560 242 309 379 453 890 1600 1660 3290 8160
2020-02-20 03:00 6.42 1380 11500 (1951) 116 (1934) 1560 242 309 379 453 890 1600 1660 3290 8160
2020-02-20 02:30 6.43 1390 11500 (1951) 116 (1934) 1560 242 309 379 453 890 1600 1660 3290 8160
2020-02-20 02:00 6.42 1380 11500 (1951) 116 (1934) 1560 242 309 379 453 890 1600 1660 3290 8160
2020-02-20 01:30 6.44 1400 11500 (1951) 116 (1934) 1560 242 309 379 453 890 1600 1660 3290 8160
2020-02-20 01:00 6.43 1390 11500 (1951) 116 (1934) 1560 242 309 379 453 890 1600 1660 3290 8160
2020-02-20 00:30 6.46 1410 11500 (1951) 116 (1934) 1560 242 309 379 453 890 1600 1660 3290 8160
2020-02-20 00:00 6.45 1410 11500 (1951) 116 (1934) 1560 242 309 379 453 890 1600 1660 3290 8160
2020-02-19 23:30 6.46 1410 20200 (1938) 114 (1934) 1470 229 293 380 431 850 1470 1810 2490 5850
2020-02-19 23:00 6.47 1420 20200 (1938) 114 (1934) 1470 229 293 380 431 850 1470 1810 2490 5850
2020-02-19 22:30 6.48 1430 20200 (1938) 114 (1934) 1470 229 293 380 431 850 1470 1810 2490 5850
2020-02-19 22:00 6.48 1430 20200 (1938) 114 (1934) 1470 229 293 380 431 850 1470 1810 2490 5850
2020-02-19 21:30 6.48 1430 20200 (1938) 114 (1934) 1470 229 293 380 431 850 1470 1810 2490 5850
2020-02-19 21:00 6.48 1430 20200 (1938) 114 (1934) 1470 229 293 380 431 850 1470 1810 2490 5850
2020-02-19 20:30 6.50 1440 20200 (1938) 114 (1934) 1470 229 293 380 431 850 1470 1810 2490 5850
2020-02-19 20:00 6.51 1450 20200 (1938) 114 (1934) 1470 229 293 380 431 850 1470 1810 2490 5850
2020-02-19 19:30 6.50 1440 20200 (1938) 114 (1934) 1470 229 293 380 431 850 1470 1810 2490 5850
2020-02-19 19:00 6.50 1440 20200 (1938) 114 (1934) 1470 229 293 380 431 850 1470 1810 2490 5850
2020-02-19 18:30 6.52 1450 20200 (1938) 114 (1934) 1470 229 293 380 431 850 1470 1810 2490 5850
2020-02-19 18:00 6.53 1460 20200 (1938) 114 (1934) 1470 229 293 380 431 850 1470 1810 2490 5850
2020-02-19 17:30 6.52 1450 20200 (1938) 114 (1934) 1470 229 293 380 431 850 1470 1810 2490 5850
2020-02-19 17:00 6.56 1480 20200 (1938) 114 (1934) 1470 229 293 380 431 850 1470 1810 2490 5850
2020-02-19 16:30 6.54 1470 20200 (1938) 114 (1934) 1470 229 293 380 431 850 1470 1810 2490 5850
2020-02-19 16:00 6.58 1500 20200 (1938) 114 (1934) 1470 229 293 380 431 850 1470 1810 2490 5850
2020-02-19 15:30 6.56 1480 20200 (1938) 114 (1934) 1470 229 293 380 431 850 1470 1810 2490 5850
2020-02-19 15:00 6.58 1500 20200 (1938) 114 (1934) 1470 229 293 380 431 850 1470 1810 2490 5850
2020-02-19 14:30 6.60 1510 20200 (1938) 114 (1934) 1470 229 293 380 431 850 1470 1810 2490 5850
2020-02-19 14:00 6.61 1520 20200 (1938) 114 (1934) 1470 229 293 380 431 850 1470 1810 2490 5850
2020-02-19 13:30 6.65 1550 20200 (1938) 114 (1934) 1470 229 293 380 431 850 1470 1810 2490 5850
2020-02-19 13:00 6.64 1540 20200 (1938) 114 (1934) 1470 229 293 380 431 850 1470 1810 2490 5850
2020-02-19 12:30 6.65 1550 20200 (1938) 114 (1934) 1470 229 293 380 431 850 1470 1810 2490 5850
2020-02-19 12:00 6.65 1550 20200 (1938) 114 (1934) 1470 229 293 380 431 850 1470 1810 2490 5850
2020-02-19 11:30 6.67 1560 20200 (1938) 114 (1934) 1470 229 293 380 431 850 1470 1810 2490 5850
2020-02-19 11:00 6.67 1560 20200 (1938) 114 (1934) 1470 229 293 380 431 850 1470 1810 2490 5850
2020-02-19 10:30 6.67 1560 20200 (1938) 114 (1934) 1470 229 293 380 431 850 1470 1810 2490 5850
2020-02-19 10:00 6.63 1530 20200 (1938) 114 (1934) 1470 229 293 380 431 850 1470 1810 2490 5850
2020-02-19 09:30 6.65 1550 20200 (1938) 114 (1934) 1470 229 293 380 431 850 1470 1810 2490 5850
2020-02-19 09:00 6.66 1560 20200 (1938) 114 (1934) 1470 229 293 380 431 850 1470 1810 2490 5850
2020-02-19 08:30 6.62 1530 20200 (1938) 114 (1934) 1470 229 293 380 431 850 1470 1810 2490 5850
2020-02-19 08:00 6.64 1540 20200 (1938) 114 (1934) 1470 229 293 380 431 850 1470 1810 2490 5850
2020-02-19 07:30 6.64 1540 20200 (1938) 114 (1934) 1470 229 293 380 431 850 1470 1810 2490 5850
2020-02-19 07:00 6.66 1560 20200 (1938) 114 (1934) 1470 229 293 380 431 850 1470 1810 2490 5850
2020-02-19 06:30 6.65 1550 20200 (1938) 114 (1934) 1470 229 293 380 431 850 1470 1810 2490 5850
2020-02-19 06:00 6.63 1530 20200 (1938) 114 (1934) 1470 229 293 380 431 850 1470 1810 2490 5850
2020-02-19 05:30 6.69 1580 20200 (1938) 114 (1934) 1470 229 293 380 431 850 1470 1810 2490 5850
2020-02-19 05:00 6.72 1600 20200 (1938) 114 (1934) 1470 229 293 380 431 850 1470 1810 2490 5850
2020-02-19 04:30 6.68 1570 20200 (1938) 114 (1934) 1470 229 293 380 431 850 1470 1810 2490 5850
2020-02-19 04:00 6.69 1580 20200 (1938) 114 (1934) 1470 229 293 380 431 850 1470 1810 2490 5850
2020-02-19 03:30 6.69 1580 20200 (1938) 114 (1934) 1470 229 293 380 431 850 1470 1810 2490 5850
2020-02-19 03:00 6.72 1600 20200 (1938) 114 (1934) 1470 229 293 380 431 850 1470 1810 2490 5850
2020-02-19 02:30 6.71 1590 20200 (1938) 114 (1934) 1470 229 293 380 431 850 1470 1810 2490 5850
2020-02-19 02:00 6.73 1610 20200 (1938) 114 (1934) 1470 229 293 380 431 850 1470 1810 2490 5850
2020-02-19 01:30 6.73 1610 20200 (1938) 114 (1934) 1470 229 293 380 431 850 1470 1810 2490 5850
2020-02-19 01:00 6.74 1610 20200 (1938) 114 (1934) 1470 229 293 380 431 850 1470 1810 2490 5850
2020-02-19 00:30 6.74 1610 20200 (1938) 114 (1934) 1470 229 293 380 431 850 1470 1810 2490 5850
2020-02-19 00:00 6.77 1640 20200 (1938) 114 (1934) 1470 229 293 380 431 850 1470 1810 2490 5850
2020-02-18 23:30 6.75 1620 34700 (1938) 118 (1934) 1950 222 294 402 421 832 1700 1960 3270 6850
2020-02-18 23:00 6.75 1620 34700 (1938) 118 (1934) 1950 222 294 402 421 832 1700 1960 3270 6850
2020-02-18 22:30 6.77 1640 34700 (1938) 118 (1934) 1950 222 294 402 421 832 1700 1960 3270 6850
2020-02-18 22:00 6.78 1640 34700 (1938) 118 (1934) 1950 222 294 402 421 832 1700 1960 3270 6850
2020-02-18 21:30 6.80 1660 34700 (1938) 118 (1934) 1950 222 294 402 421 832 1700 1960 3270 6850
2020-02-18 21:00 6.80 1660 34700 (1938) 118 (1934) 1950 222 294 402 421 832 1700 1960 3270 6850
2020-02-18 20:30 6.80 1660 34700 (1938) 118 (1934) 1950 222 294 402 421 832 1700 1960 3270 6850
2020-02-18 20:00 6.80 1660 34700 (1938) 118 (1934) 1950 222 294 402 421 832 1700 1960 3270 6850
2020-02-18 19:30 6.80 1660 34700 (1938) 118 (1934) 1950 222 294 402 421 832 1700 1960 3270 6850
2020-02-18 19:00 6.82 1670 34700 (1938) 118 (1934) 1950 222 294 402 421 832 1700 1960 3270 6850
2020-02-18 18:30 6.82 1670 34700 (1938) 118 (1934) 1950 222 294 402 421 832 1700 1960 3270 6850
2020-02-18 18:00 6.84 1690 34700 (1938) 118 (1934) 1950 222 294 402 421 832 1700 1960 3270 6850
2020-02-18 17:30 6.83 1680 34700 (1938) 118 (1934) 1950 222 294 402 421 832 1700 1960 3270 6850
2020-02-18 17:00 6.84 1690 34700 (1938) 118 (1934) 1950 222 294 402 421 832 1700 1960 3270 6850
2020-02-18 16:30 6.86 1700 34700 (1938) 118 (1934) 1950 222 294 402 421 832 1700 1960 3270 6850
2020-02-18 16:00 6.85 1700 34700 (1938) 118 (1934) 1950 222 294 402 421 832 1700 1960 3270 6850
2020-02-18 15:30 6.86 1700 34700 (1938) 118 (1934) 1950 222 294 402 421 832 1700 1960 3270 6850
2020-02-18 15:00 6.87 1710 34700 (1938) 118 (1934) 1950 222 294 402 421 832 1700 1960 3270 6850
2020-02-18 14:30 6.89 1730 34700 (1938) 118 (1934) 1950 222 294 402 421 832 1700 1960 3270 6850
2020-02-18 14:00 6.91 1740 34700 (1938) 118 (1934) 1950 222 294 402 421 832 1700 1960 3270 6850
2020-02-18 13:30 6.89 1730 34700 (1938) 118 (1934) 1950 222 294 402 421 832 1700 1960 3270 6850
2020-02-18 13:00 6.91 1740 34700 (1938) 118 (1934) 1950 222 294 402 421 832 1700 1960 3270 6850
2020-02-18 12:30 6.91 1740 34700 (1938) 118 (1934) 1950 222 294 402 421 832 1700 1960 3270 6850
2020-02-18 12:00 6.93 1760 34700 (1938) 118 (1934) 1950 222 294 402 421 832 1700 1960 3270 6850
2020-02-18 11:30 6.92 1750 34700 (1938) 118 (1934) 1950 222 294 402 421 832 1700 1960 3270 6850
2020-02-18 11:00 6.95 1770 34700 (1938) 118 (1934) 1950 222 294 402 421 832 1700 1960 3270 6850
2020-02-18 10:30 6.94 1770 34700 (1938) 118 (1934) 1950 222 294 402 421 832 1700 1960 3270 6850
2020-02-18 10:00 6.96 1780 34700 (1938) 118 (1934) 1950 222 294 402 421 832 1700 1960 3270 6850
2020-02-18 09:30 6.94 1770 34700 (1938) 118 (1934) 1950 222 294 402 421 832 1700 1960 3270 6850
2020-02-18 09:00 6.98 1800 34700 (1938) 118 (1934) 1950 222 294 402 421 832 1700 1960 3270 6850
2020-02-18 08:30 6.99 1810 34700 (1938) 118 (1934) 1950 222 294 402 421 832 1700 1960 3270 6850
2020-02-18 08:00 6.98 1800 34700 (1938) 118 (1934) 1950 222 294 402 421 832 1700 1960 3270 6850
2020-02-18 07:30 7.00 1810 34700 (1938) 118 (1934) 1950 222 294 402 421 832 1700 1960 3270 6850
2020-02-18 07:00 6.99 1810 34700 (1938) 118 (1934) 1950 222 294 402 421 832 1700 1960 3270 6850
2020-02-18 06:30 7.01 1820 34700 (1938) 118 (1934) 1950 222 294 402 421 832 1700 1960 3270 6850
2020-02-18 06:00 7.02 1830 34700 (1938) 118 (1934) 1950 222 294 402 421 832 1700 1960 3270 6850
2020-02-18 05:30 7.03 1840 34700 (1938) 118 (1934) 1950 222 294 402 421 832 1700 1960 3270 6850
2020-02-18 05:00 7.04 1850 34700 (1938) 118 (1934) 1950 222 294 402 421 832 1700 1960 3270 6850
2020-02-18 04:30 7.05 1850 34700 (1938) 118 (1934) 1950 222 294 402 421 832 1700 1960 3270 6850
2020-02-18 04:00 7.04 1850 34700 (1938) 118 (1934) 1950 222 294 402 421 832 1700 1960 3270 6850
2020-02-18 03:30 7.05 1850 34700 (1938) 118 (1934) 1950 222 294 402 421 832 1700 1960 3270 6850
2020-02-18 03:00 7.06 1860 34700 (1938) 118 (1934) 1950 222 294 402 421 832 1700 1960 3270 6850
2020-02-18 02:30 7.06 1860 34700 (1938) 118 (1934) 1950 222 294 402 421 832 1700 1960 3270 6850
2020-02-18 02:00 7.07 1870 34700 (1938) 118 (1934) 1950 222 294 402 421 832 1700 1960 3270 6850
2020-02-18 01:30 7.05 1850 34700 (1938) 118 (1934) 1950 222 294 402 421 832 1700 1960 3270 6850
2020-02-18 01:00 7.07 1870 34700 (1938) 118 (1934) 1950 222 294 402 421 832 1700 1960 3270 6850
2020-02-18 00:30 7.06 1860 34700 (1938) 118 (1934) 1950 222 294 402 421 832 1700 1960 3270 6850
2020-02-18 00:00 7.07 1870 34700 (1938) 118 (1934) 1950 222 294 402 421 832 1700 1960 3270 6850

A total of 364 rows are displayed for years 1922 through 2019.